Main page
METAR-TAF:

METAR-TAF

Airports :

Koltsovo Airport

Yekaterinburg, Russia

latitude: 56-50N, longitude: 060-38E, elevation: 237 m

Current weather observation

The report was made 15 minutes ago, at 12:30 UTC
Wind 10 kt from the West/Northwest
Temperature 3°C
Humidity 81%
Pressure 1013 hPa
Visibility 10 km or more
Scattered clouds at a height of 2700 ft

METAR: USSS 181230Z 30005MPS 9999 SCT027 03/M00 Q1013 R26R/220060 NOSIG RMK QFE739/0986

Time: 17:45 (12:45 UTC)

Forecast

The report was made 1 hour and 53 minutes ago, at 10:52 UTC
Forecast valid from 18 at 12 UTC to 19 at 12 UTC
Wind 10 kt from the West/Northwest with gusts up to 33 kt
Visibility 10 km or more
Broken clouds at a height of 1100 ft
Scattered clouds at a height of 2000 ft, Cumulonimbus.
Becoming
from 18 at 20 UTC to 18 at 22 UTC
Wind 6 kt from the South/Southwest with gusts up to 16 kt
Visibility: 3100 m
light snow showers, rain, mist

TAF: USSS 181052Z 1812/1912 30005G17MPS 9999 BKN011 SCT020CB BECMG 1820/1822 21003G08MPS 3100 -SHSNRA BR

Weather observations and forecasts of more than 4000 airports (METAR and TAF reports).

The available stations are represented by yellow and red dots on the map.

Hover mouse over dot to see the name of the station.

Then click to see weather observations and forecasts.

To change the map : click on the green buttons with a black cross to zoom in, on the green button with a dash to zoom out, or on the green arrows for adjacent maps.


METAR-TAF: